Time;durP1;ratioP1;P1;durP2;ratioP2;P2;SDS_P1;SDS_P2;PMS_P1;PMS_P2;Temp;Humidity;BMP_temperature;BMP_pressure;BME280_temperature;BME280_humidity;BME280_pressure;Samples;Min_cycle;Max_cycle;Signal;HPM_P1;HPM_P2
2022/05/12 00:00:35;;;;;;;13.93;5.90;;;;;;;17.72;32.61;100198.19;1665225;85;22528;-58
2022/05/12 00:03:01;;;;;;;10.35;5.60;;;;;;;17.61;32.79;100199.00;1664840;85;21457;-57
2022/05/12 00:05:28;;;;;;;9.30;5.22;;;;;;;17.50;32.94;100197.97;1672978;84;21011;-56
2022/05/12 00:07:55;;;;;;;9.55;4.92;;;;;;;17.35;33.15;100202.41;1673047;84;22355;-55
2022/05/12 00:10:24;;;;;;;12.05;5.58;;;;;;;17.42;33.05;100203.59;1672498;84;21185;-65
2022/05/12 00:12:51;;;;;;;8.33;4.67;;;;;;;17.38;33.14;100197.97;1662052;84;21133;-56
2022/05/12 00:15:22;;;;;;;8.30;3.90;;;;;;;17.55;32.91;100194.15;1673966;84;21007;-54
2022/05/12 00:17:50;;;;;;;8.28;4.40;;;;;;;17.47;32.83;100200.57;1674482;84;28972;-55
2022/05/12 00:20:20;;;;;;;6.53;3.60;;;;;;;17.37;32.95;100200.33;1672835;84;20987;-55
2022/05/12 00:22:47;;;;;;;6.25;3.58;;;;;;;17.25;33.06;100201.64;1674025;84;21432;-55
2022/05/12 00:25:21;;;;;;;7.22;3.90;;;;;;;17.22;33.06;100206.56;1673122;84;21019;-55
2022/05/12 00:27:49;;;;;;;5.25;2.80;;;;;;;17.18;33.04;100203.58;1673725;84;21030;-54
2022/05/12 00:30:16;;;;;;;9.35;4.12;;;;;;;17.07;33.20;100199.62;1672836;84;21532;-56
2022/05/12 00:32:46;;;;;;;7.08;3.87;;;;;;;17.11;33.07;100198.13;1674127;84;21392;-54
2022/05/12 00:35:15;;;;;;;5.42;3.37;;;;;;;17.09;33.10;100193.63;1673109;84;21205;-54
2022/05/12 00:37:43;;;;;;;6.00;3.30;;;;;;;17.08;33.15;100205.97;1644618;84;21094;-54
2022/05/12 00:40:10;;;;;;;7.33;3.17;;;;;;;17.03;33.15;100194.80;1672505;84;21087;-55
2022/05/12 00:42:37;;;;;;;6.00;3.20;;;;;;;16.95;33.25;100194.34;1673833;84;21926;-55
2022/05/12 00:45:07;;;;;;;7.30;3.40;;;;;;;16.93;33.36;100200.33;1644312;85;21019;-54
2022/05/12 00:47:36;;;;;;;6.62;3.10;;;;;;;16.89;33.47;100193.91;1673513;84;21880;-54
2022/05/12 00:50:04;;;;;;;7.00;3.00;;;;;;;16.76;33.57;100192.29;1672257;84;21016;-64
2022/05/12 00:52:32;;;;;;;6.92;2.67;;;;;;;16.64;33.77;100187.48;1673677;84;21101;-54
2022/05/12 00:55:09;;;;;;;6.10;2.77;;;;;;;16.60;33.80;100188.44;1644019;85;21065;-55
2022/05/12 00:57:43;;;;;;;6.28;2.77;;;;;;;16.54;33.91;100188.80;1673114;84;21138;-63
2022/05/12 01:00:13;;;;;;;5.30;2.65;;;;;;;16.52;33.94;100180.87;1643253;85;21299;-55
2022/05/12 01:02:41;;;;;;;7.70;2.83;;;;;;;16.49;33.99;100191.83;1673090;84;21042;-54
2022/05/12 01:05:09;;;;;;;6.65;2.83;;;;;;;16.46;34.02;100189.13;1672825;84;21051;-55
2022/05/12 01:07:37;;;;;;;5.95;2.70;;;;;;;16.44;34.10;100186.42;1673154;84;20920;-54
2022/05/12 01:10:06;;;;;;;6.50;2.60;;;;;;;16.35;34.29;100187.77;1672829;84;21062;-55
2022/05/12 01:12:33;;;;;;;7.10;3.10;;;;;;;16.31;34.35;100187.41;1673121;84;21171;-56
2022/05/12 01:15:01;;;;;;;5.15;2.60;;;;;;;16.25;34.46;100189.11;1672783;84;21627;-54
2022/05/12 01:17:28;;;;;;;4.28;2.08;;;;;;;16.16;34.64;100184.36;1672772;84;22209;-56
2022/05/12 01:19:56;;;;;;;5.47;2.58;;;;;;;16.11;34.81;100192.92;1672463;84;21139;-64
2022/05/12 01:22:58;;;;;;;5.58;2.60;;;;;;;16.14;34.78;100195.11;1673078;84;21476;-56
2022/05/12 01:25:28;;;;;;;7.15;2.55;;;;;;;16.17;34.84;100199.11;1673004;84;21168;-58
2022/05/12 01:27:57;;;;;;;7.20;2.40;;;;;;;16.14;34.94;100197.74;1662527;84;21082;-55
2022/05/12 01:30:24;;;;;;;5.25;3.20;;;;;;;16.14;35.02;100196.43;1672842;84;21050;-56
2022/05/12 01:32:52;;;;;;;5.05;2.33;;;;;;;16.26;34.92;100194.66;1661631;84;21019;-56
2022/05/12 01:35:22;;;;;;;4.40;2.30;;;;;;;16.25;34.88;100193.54;1672674;84;21006;-58
2022/05/12 01:37:50;;;;;;;4.22;2.12;;;;;;;16.25;34.87;100194.86;1673541;84;21585;-54
2022/05/12 01:40:21;;;;;;;6.92;2.20;;;;;;;16.25;34.82;100194.37;1672580;84;21063;-56
2022/05/12 01:42:48;;;;;;;6.47;2.75;;;;;;;16.26;34.64;100195.17;1672657;84;21603;-55
2022/05/12 01:45:16;;;;;;;6.35;2.98;;;;;;;16.20;34.72;100205.25;1672807;84;21519;-56
2022/05/12 01:47:44;;;;;;;6.05;2.90;;;;;;;16.28;34.64;100198.36;1672914;84;21532;-55
2022/05/12 01:50:13;;;;;;;5.53;2.55;;;;;;;16.27;34.58;100194.13;1673050;84;21174;-56
2022/05/12 01:52:43;;;;;;;5.08;2.60;;;;;;;16.40;34.50;100200.56;1672526;84;21086;-56
2022/05/12 01:55:09;;;;;;;4.95;2.58;;;;;;;16.42;34.36;100196.37;1672809;84;21488;-54
2022/05/12 01:57:37;;;;;;;5.53;2.67;;;;;;;16.45;34.33;100202.52;1672698;84;21002;-56
2022/05/12 02:00:06;;;;;;;6.42;2.62;;;;;;;16.49;34.22;100204.47;1672913;84;22018;-55
2022/05/12 02:02:35;;;;;;;5.80;3.08;;;;;;;16.47;34.22;100201.77;1672859;84;25713;-54
2022/05/12 02:05:03;;;;;;;5.67;2.60;;;;;;;16.58;34.06;100204.95;1667886;84;21471;-54
2022/05/12 02:07:30;;;;;;;7.42;2.92;;;;;;;16.63;33.92;100210.37;1665333;85;20950;-61
2022/05/12 02:09:58;;;;;;;7.30;2.95;;;;;;;16.65;33.89;100206.19;1665007;84;21143;-54
2022/05/12 02:12:26;;;;;;;7.00;2.42;;;;;;;16.80;33.83;100208.44;1665318;85;21037;-56
2022/05/12 02:14:54;;;;;;;7.87;3.40;;;;;;;16.95;33.69;100209.62;1664607;84;21508;-54
2022/05/12 02:17:21;;;;;;;6.83;3.30;;;;;;;17.15;33.49;100211.94;1664247;85;20914;-64
2022/05/12 02:19:48;;;;;;;7.33;3.25;;;;;;;17.16;33.47;100210.92;1664303;85;21391;-54
2022/05/12 02:22:17;;;;;;;9.80;3.50;;;;;;;17.29;33.35;100211.73;1664889;85;21502;-61
2022/05/12 02:24:45;;;;;;;7.50;3.00;;;;;;;17.22;33.41;100212.63;1665408;84;21663;-56
2022/05/12 02:27:13;;;;;;;5.80;2.90;;;;;;;17.24;33.38;100209.27;1665245;85;21305;-54
2022/05/12 02:29:40;;;;;;;5.85;2.58;;;;;;;17.29;33.28;100213.05;1664969;84;21020;-54
2022/05/12 02:32:08;;;;;;;6.12;3.17;;;;;;;17.21;33.36;100212.35;1664891;84;21095;-57
2022/05/12 02:34:35;;;;;;;8.00;3.05;;;;;;;17.15;33.42;100219.03;1665694;85;21499;-55
2022/05/12 02:37:04;;;;;;;6.87;3.30;;;;;;;17.10;33.44;100221.56;1665246;85;21020;-55
2022/05/12 02:39:35;;;;;;;6.90;3.40;;;;;;;17.07;33.52;100223.32;1664951;84;22121;-56
2022/05/12 02:42:04;;;;;;;8.50;3.33;;;;;;;17.05;33.57;100220.92;1664539;85;21836;-56
2022/05/12 02:44:31;;;;;;;7.22;3.42;;;;;;;17.03;33.58;100228.23;1665525;85;21827;-55
2022/05/12 02:46:58;;;;;;;7.90;3.65;;;;;;;16.95;33.65;100228.56;1665601;85;21505;-57
2022/05/12 02:49:25;;;;;;;6.40;3.10;;;;;;;17.02;33.60;100234.54;1664979;85;20988;-55
2022/05/12 02:51:52;;;;;;;6.15;2.85;;;;;;;17.05;33.59;100243.31;1654506;85;21317;-59
2022/05/12 02:54:20;;;;;;;5.40;2.95;;;;;;;17.10;33.55;100241.31;1664695;84;21026;-56
2022/05/12 02:56:47;;;;;;;7.65;3.20;;;;;;;17.13;33.60;100248.25;1665515;85;21100;-58
2022/05/12 02:59:14;;;;;;;4.77;2.77;;;;;;;17.33;33.51;100244.50;1664913;84;21649;-65
2022/05/12 03:01:41;;;;;;;7.22;3.10;;;;;;;17.75;33.27;100247.34;1664793;84;21386;-63
2022/05/12 03:04:09;;;;;;;5.70;3.23;;;;;;;18.54;32.62;100245.51;1665045;85;21192;-58
2022/05/12 03:06:37;;;;;;;8.57;3.73;;;;;;;19.38;31.87;100234.27;1665739;85;21236;-57
2022/05/12 03:09:06;;;;;;;7.53;3.53;;;;;;;20.41;30.62;100239.33;1665605;85;21814;-55
2022/05/12 03:11:34;;;;;;;5.17;3.10;;;;;;;21.51;29.31;100235.04;1665370;85;21266;-57
2022/05/12 03:14:03;;;;;;;6.43;3.30;;;;;;;23.07;26.96;100228.96;1664878;85;22118;-54
2022/05/12 03:16:30;;;;;;;6.53;3.57;;;;;;;23.07;26.96;100228.96;1665763;85;22118;-56
2022/05/12 03:18:58;;;;;;;7.27;3.67;;;;;;;23.68;26.19;100234.76;1665091;85;21080;-55
2022/05/12 03:21:26;;;;;;;6.73;3.70;;;;;;;24.33;25.55;100240.09;1664675;85;21041;-58
2022/05/12 03:23:54;;;;;;;7.70;3.67;;;;;;;25.02;24.75;100239.66;1671139;85;21505;-56
2022/05/12 03:26:21;;;;;;;7.50;3.40;;;;;;;25.68;24.05;100244.37;1665143;85;21505;-54
2022/05/12 03:28:48;;;;;;;5.83;3.23;;;;;;;26.31;23.29;100250.86;1654550;85;21188;-56
2022/05/12 03:31:15;;;;;;;7.97;4.30;;;;;;;26.93;22.70;100249.44;1665596;85;21625;-57
2022/05/12 03:33:43;;;;;;;9.40;4.27;;;;;;;27.37;22.25;100245.52;1664932;85;20997;-54
2022/05/12 03:36:10;;;;;;;7.40;3.87;;;;;;;28.03;21.59;100242.12;1666113;85;21922;-57
2022/05/12 03:38:38;;;;;;;6.40;3.50;;;;;;;28.47;21.24;100244.16;1666216;84;21095;-54
2022/05/12 03:41:06;;;;;;;7.00;4.20;;;;;;;29.04;20.71;100245.77;1665420;84;21285;-54
2022/05/12 03:46:19;;;;;;;7.90;4.10;;;;;;;30.28;19.76;100250.22;1665445;85;21103;-54
2022/05/12 03:48:47;;;;;;;6.57;4.27;;;;;;;30.67;19.19;100252.52;1665711;85;21072;-54
2022/05/12 03:51:14;;;;;;;5.70;4.10;;;;;;;30.98;19.03;100255.58;1665316;84;21617;-61
2022/05/12 03:53:41;;;;;;;6.57;4.80;;;;;;;31.47;18.59;100258.80;1665377;85;21115;-54
2022/05/12 03:56:08;;;;;;;7.30;4.60;;;;;;;31.80;18.22;100259.53;1665621;85;20996;-53
2022/05/12 03:58:35;;;;;;;6.70;4.30;;;;;;;32.01;17.89;100248.80;1665866;85;21026;-54
2022/05/12 04:01:04;;;;;;;6.03;4.17;;;;;;;32.26;17.82;100245.14;1665390;84;21067;-55
2022/05/12 04:03:31;;;;;;;6.15;4.12;;;;;;;32.29;17.53;100249.09;1665382;84;21779;-63
2022/05/12 04:06:00;;;;;;;5.70;4.10;;;;;;;32.19;17.57;100252.39;1665676;84;21433;-54
2022/05/12 04:08:27;;;;;;;5.90;4.53;;;;;;;32.27;17.50;100250.75;1665856;85;20941;-54
2022/05/12 04:10:54;;;;;;;8.00;4.83;;;;;;;32.23;17.59;100245.78;1665469;84;21053;-57
2022/05/12 04:13:21;;;;;;;7.03;4.62;;;;;;;32.39;17.56;100250.02;1665690;85;21009;-57
2022/05/12 04:15:49;;;;;;;6.22;3.67;;;;;;;32.56;17.37;100247.23;1664197;85;21096;-55
2022/05/12 04:18:17;;;;;;;8.53;4.28;;;;;;;32.66;17.31;100247.39;1665477;85;21465;-54
2022/05/12 04:20:46;;;;;;;7.12;4.20;;;;;;;32.80;17.29;100251.91;1665825;85;21028;-55
2022/05/12 04:23:13;;;;;;;6.47;4.08;;;;;;;33.08;16.99;100250.02;1665523;85;21006;-54
2022/05/12 04:25:40;;;;;;;8.30;4.50;;;;;;;33.14;16.83;100251.36;1664896;85;21515;-60
2022/05/12 04:28:08;;;;;;;6.40;4.10;;;;;;;33.19;16.73;100255.22;1665644;85;21309;-54
2022/05/12 04:30:36;;;;;;;8.05;5.05;;;;;;;33.06;16.79;100248.98;1665816;85;21190;-54
2022/05/12 04:35:48;;;;;;;7.75;4.30;;;;;;;33.42;16.79;100252.88;1664682;85;21554;-55
2022/05/12 04:38:15;;;;;;;7.45;4.65;;;;;;;33.78;16.64;100245.91;1665455;84;21038;-58
2022/05/12 04:40:44;;;;;;;5.87;4.03;;;;;;;34.19;16.31;100246.20;1665954;85;21098;-54
2022/05/12 04:43:11;;;;;;;7.42;4.15;;;;;;;34.48;16.18;100246.45;1665396;85;21239;-63
2022/05/12 04:45:38;;;;;;;7.47;4.22;;;;;;;34.80;15.75;100246.55;1665236;85;21544;-56
2022/05/12 04:48:06;;;;;;;6.55;4.15;;;;;;;34.91;15.89;100252.27;1665473;85;21073;-56
2022/05/12 04:50:36;;;;;;;6.65;4.45;;;;;;;35.30;15.77;100249.98;1665853;85;21561;-56
2022/05/12 04:53:04;;;;;;;8.38;4.55;;;;;;;35.83;15.54;100251.05;1666054;85;21103;-55
2022/05/12 04:55:33;;;;;;;7.30;4.97;;;;;;;36.25;15.07;100251.19;1665168;84;21851;-56
2022/05/12 04:58:00;;;;;;;7.90;4.15;;;;;;;36.77;14.73;100247.19;1665534;83;21808;-55
2022/05/12 05:00:33;;;;;;;5.78;4.30;;;;;;;37.10;14.44;100250.52;1666208;84;21936;-54
2022/05/12 05:03:00;;;;;;;8.23;4.83;;;;;;;36.94;14.59;100262.83;1665792;85;21517;-54
2022/05/12 05:05:28;;;;;;;8.13;4.42;;;;;;;37.21;14.11;100262.34;1664776;85;22427;-55
2022/05/12 05:07:56;;;;;;;7.00;4.70;;;;;;;36.97;14.21;100262.11;1665787;83;21543;-54
2022/05/12 05:10:23;;;;;;;7.33;4.53;;;;;;;36.76;14.42;100263.86;1665763;84;20970;-57
2022/05/12 05:12:52;;;;;;;7.45;4.83;;;;;;;36.58;14.46;100264.88;1665821;85;21416;-54
2022/05/12 05:15:20;;;;;;;5.95;4.90;;;;;;;36.66;14.42;100265.22;1664632;84;20969;-64
2022/05/12 05:17:47;;;;;;;5.45;4.25;;;;;;;36.63;14.51;100268.64;1666523;85;21063;-54
2022/05/12 05:20:19;;;;;;;7.58;5.00;;;;;;;36.89;14.40;100265.83;1665773;85;21527;-54
2022/05/12 05:22:47;;;;;;;7.28;5.03;;;;;;;36.87;14.31;100269.49;1666087;85;21147;-54
2022/05/12 05:25:14;;;;;;;8.33;5.60;;;;;;;36.92;14.18;100265.11;1665051;85;21554;-61
2022/05/12 05:27:42;;;;;;;7.55;4.85;;;;;;;36.71;14.40;100267.66;1665134;85;21311;-55
2022/05/12 05:30:11;;;;;;;8.68;5.22;;;;;;;36.49;14.49;100275.18;1665191;85;21462;-56
2022/05/12 05:32:38;;;;;;;7.58;6.03;;;;;;;36.35;14.57;100272.92;1665799;84;21280;-57
2022/05/12 05:35:07;;;;;;;9.58;5.67;;;;;;;36.50;14.51;100264.52;1664388;85;21023;-58
2022/05/12 05:37:34;;;;;;;6.47;5.00;;;;;;;36.62;14.33;100271.73;1665205;85;21083;-58
2022/05/12 05:40:03;;;;;;;7.58;5.33;;;;;;;36.69;14.35;100274.02;1664789;84;20988;-54
2022/05/12 05:42:30;;;;;;;7.90;5.42;;;;;;;37.04;14.20;100270.39;1665667;84;21212;-55
2022/05/12 05:44:57;;;;;;;6.97;5.05;;;;;;;37.44;13.99;100278.67;1664700;85;21285;-56
2022/05/12 05:47:25;;;;;;;6.85;4.75;;;;;;;37.59;13.73;100285.91;1665111;85;22027;-55
2022/05/12 05:49:53;;;;;;;8.75;5.75;;;;;;;37.77;13.40;100276.62;1654692;84;20985;-63
2022/05/12 05:55:06;;;;;;;7.65;4.90;;;;;;;38.10;13.59;100270.50;1665458;85;22272;-54
2022/05/12 05:57:35;;;;;;;6.87;4.80;;;;;;;38.78;12.96;100267.81;1665352;85;21248;-62
2022/05/12 06:00:05;;;;;;;7.08;4.62;;;;;;;39.02;12.83;100268.67;1665307;85;21486;-54
2022/05/12 06:02:33;;;;;;;7.33;3.57;;;;;;;39.25;12.77;100272.59;1665761;84;21104;-56
2022/05/12 06:05:00;;;;;;;7.45;3.87;;;;;;;39.68;12.17;100264.73;1665140;84;21329;-54
2022/05/12 06:07:28;;;;;;;6.42;3.22;;;;;;;39.92;12.19;100271.48;1665743;84;21612;-62
2022/05/12 06:09:55;;;;;;;6.65;3.75;;;;;;;40.08;11.88;100266.52;1664322;84;21236;-55
2022/05/12 06:12:22;;;;;;;5.47;3.83;;;;;;;40.07;11.94;100270.97;1664815;85;21183;-58
2022/05/12 06:14:50;;;;;;;5.85;3.70;;;;;;;39.95;11.82;100274.04;1665036;84;21430;-54
2022/05/12 06:17:17;;;;;;;6.42;3.55;;;;;;;39.65;11.79;100264.09;1665121;85;21023;-54
2022/05/12 06:19:45;;;;;;;7.35;4.20;;;;;;;39.45;12.03;100265.52;1664621;84;21134;-56
2022/05/12 06:22:12;;;;;;;10.28;3.55;;;;;;;39.27;12.21;100262.66;1664892;84;21138;-59
2022/05/12 06:24:40;;;;;;;6.28;3.35;;;;;;;39.10;12.39;100266.20;1665503;85;21442;-55
2022/05/12 06:27:07;;;;;;;5.97;3.60;;;;;;;39.18;12.34;100265.69;1665309;85;21601;-55
2022/05/12 06:29:36;;;;;;;5.58;3.37;;;;;;;39.29;12.16;100263.08;1665836;85;21084;-56
2022/05/12 06:32:06;;;;;;;5.03;3.27;;;;;;;39.24;11.92;100262.83;1664882;84;21004;-56
2022/05/12 06:34:33;;;;;;;5.62;3.20;;;;;;;38.94;12.13;100263.70;1665054;85;21163;-56
2022/05/12 06:37:00;;;;;;;5.12;3.42;;;;;;;38.76;12.31;100257.30;1665280;85;21051;-56
2022/05/12 06:39:28;;;;;;;6.70;3.60;;;;;;;38.79;12.19;100259.83;1665298;85;21100;-55
2022/05/12 06:41:55;;;;;;;6.40;2.98;;;;;;;38.85;12.37;100257.79;1664506;84;21056;-57
2022/05/12 06:44:24;;;;;;;7.05;3.33;;;;;;;38.78;12.46;100257.69;1664589;84;21084;-55
2022/05/12 06:46:51;;;;;;;5.22;2.98;;;;;;;38.77;12.20;100250.67;1654442;85;22266;-55
2022/05/12 06:49:19;;;;;;;7.80;3.12;;;;;;;38.81;12.10;100251.52;1665159;85;21530;-56
2022/05/12 06:51:47;;;;;;;5.08;3.70;;;;;;;38.64;12.39;100252.09;1665227;85;21123;-56
2022/05/12 06:54:14;;;;;;;4.55;3.55;;;;;;;38.60;12.65;100245.82;1665305;85;21113;-54
2022/05/12 06:56:43;;;;;;;4.92;3.37;;;;;;;38.54;12.48;100251.42;1665201;85;21146;-55
2022/05/12 06:59:11;;;;;;;5.80;3.83;;;;;;;38.64;12.60;100240.64;1665292;84;21548;-57
2022/05/12 07:01:38;;;;;;;5.30;3.50;;;;;;;38.97;12.41;100251.86;1665549;84;21573;-55
2022/05/12 07:04:05;;;;;;;5.65;3.42;;;;;;;39.10;12.32;100253.94;1664638;85;21017;-56
2022/05/12 07:06:32;;;;;;;4.35;2.90;;;;;;;39.26;11.68;100254.28;1668623;84;21549;-55
2022/05/12 07:08:58;;;;;;;4.03;2.80;;;;;;;39.05;11.37;100257.57;1672689;84;21118;-55
2022/05/12 07:11:25;;;;;;;3.85;2.30;;;;;;;39.01;11.21;100250.73;1673280;84;21206;-57
2022/05/12 07:13:52;;;;;;;6.20;2.37;;;;;;;38.94;11.23;100243.27;1662133;84;20960;-60
2022/05/12 07:16:20;;;;;;;3.95;2.12;;;;;;;38.79;11.48;100243.48;1673308;84;21075;-56
2022/05/12 07:18:47;;;;;;;4.28;2.00;;;;;;;38.77;11.16;100257.48;1673631;84;21042;-60
2022/05/12 07:26:36;;;;;;;3.70;2.10;;;;;;;38.09;11.60;100239.58;1640735;84;21011;-56
2022/05/12 07:29:04;;;;;;;5.40;2.17;;;;;;;37.80;11.94;100239.75;1673247;84;21596;-54
2022/05/12 07:31:32;;;;;;;3.85;2.30;;;;;;;37.74;12.23;100244.16;1673223;84;21633;-56
2022/05/12 07:33:58;;;;;;;2.90;1.80;;;;;;;37.77;11.77;100235.81;1672747;84;21475;-54
2022/05/12 07:36:32;;;;;;;5.53;2.15;;;;;;;37.92;11.62;100230.83;1673313;84;21286;-57
2022/05/12 07:39:00;;;;;;;3.62;2.00;;;;;;;38.12;11.94;100232.83;1663333;84;21026;-55
2022/05/12 07:41:27;;;;;;;4.17;2.20;;;;;;;38.34;11.98;100225.73;1672800;84;21536;-63
2022/05/12 07:43:54;;;;;;;4.95;2.20;;;;;;;38.40;10.55;100232.39;1672940;84;21062;-55
2022/05/12 07:46:24;;;;;;;6.72;2.22;;;;;;;38.21;10.94;100233.31;1672902;84;21027;-57
2022/05/12 07:48:51;;;;;;;4.20;1.93;;;;;;;38.18;10.63;100235.41;1662488;84;22351;-56
2022/05/12 07:51:19;;;;;;;3.92;2.30;;;;;;;38.20;10.94;100241.86;1672632;84;21473;-63
2022/05/12 07:53:47;;;;;;;3.72;2.37;;;;;;;38.24;10.84;100234.52;1672654;84;21026;-55
2022/05/12 07:56:16;;;;;;;5.12;2.10;;;;;;;38.00;11.07;100243.95;1672797;84;20955;-63
2022/05/12 07:58:43;;;;;;;4.37;2.20;;;;;;;37.73;11.24;100228.99;1673344;84;21121;-56
2022/05/12 08:01:12;;;;;;;5.35;2.40;;;;;;;37.78;11.58;100244.20;1672763;84;21271;-56
2022/05/12 08:03:39;;;;;;;3.15;2.12;;;;;;;37.97;11.21;100235.94;1673021;84;20947;-56
2022/05/12 08:06:07;;;;;;;3.70;2.15;;;;;;;38.09;11.41;100239.00;1671815;84;21933;-55
2022/05/12 08:08:35;;;;;;;4.33;2.45;;;;;;;38.30;11.57;100231.68;1664983;85;21621;-55
2022/05/12 08:11:05;;;;;;;4.97;2.17;;;;;;;38.56;11.20;100232.75;1664844;85;21087;-54
2022/05/12 08:13:32;;;;;;;4.00;2.47;;;;;;;38.64;11.12;100233.02;1665308;84;21171;-59
2022/05/12 08:15:59;;;;;;;4.97;3.02;;;;;;;38.70;11.17;100230.17;1664958;84;21010;-55
2022/05/12 08:18:26;;;;;;;5.85;3.58;;;;;;;38.69;10.89;100227.25;1664861;85;21064;-60
2022/05/12 08:20:53;;;;;;;9.68;4.00;;;;;;;38.57;10.70;100226.16;1665015;85;21353;-54
2022/05/12 08:23:20;;;;;;;5.87;4.60;;;;;;;38.37;11.19;100229.63;1664714;84;21091;-55
2022/05/12 08:25:47;;;;;;;8.25;5.30;;;;;;;38.35;10.91;100231.38;1665129;84;21244;-63
2022/05/12 08:28:16;;;;;;;8.35;6.12;;;;;;;37.63;11.44;100229.62;1664745;85;21001;-56
2022/05/12 08:30:44;;;;;;;7.83;7.00;;;;;;;37.47;11.38;100224.34;1665006;85;21079;-56
2022/05/12 08:33:12;;;;;;;8.65;6.65;;;;;;;37.41;11.47;100217.64;1664873;85;21408;-56
2022/05/12 08:35:42;;;;;;;7.72;5.70;;;;;;;37.18;11.75;100217.64;1665566;85;21081;-54
2022/05/12 08:38:09;;;;;;;5.95;5.08;;;;;;;37.29;11.63;100222.47;1665272;85;21722;-54
2022/05/12 08:40:59;;;;;;;5.55;4.92;;;;;;;37.29;11.63;100222.47;1665177;84;21392;-62
2022/05/12 08:43:51;;;;;;;6.10;4.83;;;;;;;37.12;11.30;100227.24;1665543;85;21029;-62
2022/05/12 08:46:22;;;;;;;7.87;5.17;;;;;;;36.66;11.52;100225.84;1667553;85;21162;-54
2022/05/12 08:48:49;;;;;;;6.10;3.85;;;;;;;36.59;12.01;100216.20;1664652;84;21562;-54
2022/05/12 08:51:18;;;;;;;6.33;4.60;;;;;;;36.33;11.79;100220.91;1664492;85;21232;-55
2022/05/12 08:53:56;;;;;;;6.30;3.80;;;;;;;36.24;11.96;100225.78;1665512;84;21008;-60
2022/05/12 08:56:23;;;;;;;5.20;3.55;;;;;;;36.17;12.14;100218.84;1665139;85;21126;-55
2022/05/12 08:58:53;;;;;;;7.17;3.83;;;;;;;36.27;12.35;100211.50;1665147;85;21111;-57
2022/05/12 09:01:25;;;;;;;5.97;3.58;;;;;;;36.52;12.32;100210.09;1664232;85;21819;-55
2022/05/12 09:04:20;;;;;;;5.67;3.12;;;;;;;36.75;11.94;100203.90;1654116;85;21311;-54
2022/05/12 09:07:30;;;;;;;4.50;3.15;;;;;;;36.84;11.90;100202.30;1665556;84;21086;-55
2022/05/12 09:10:09;;;;;;;4.78;3.30;;;;;;;36.92;11.79;100211.55;1672012;84;21559;-55
2022/05/12 09:12:46;;;;;;;5.17;2.87;;;;;;;36.92;11.84;100208.05;1633145;84;21125;-62
2022/05/12 09:15:26;;;;;;;5.33;3.30;;;;;;;37.13;11.73;100209.03;1672863;84;21627;-54
2022/05/12 09:18:15;;;;;;;6.20;3.52;;;;;;;37.44;11.81;100203.31;1662888;84;21310;-55
2022/05/12 09:20:43;;;;;;;5.20;3.62;;;;;;;37.72;11.78;100192.04;1662986;84;21347;-56
2022/05/12 09:23:09;;;;;;;7.72;4.20;;;;;;;37.86;11.55;100200.20;1672871;84;21022;-62
2022/05/12 09:25:43;;;;;;;6.60;4.37;;;;;;;37.73;11.48;100199.07;1673545;84;21154;-56
2022/05/12 09:28:36;;;;;;;6.80;4.22;;;;;;;38.03;11.55;100201.59;1672760;84;21078;-54
2022/05/12 09:31:18;;;;;;;6.97;4.25;;;;;;;37.67;11.62;100201.11;1672500;84;21247;-54
2022/05/12 09:33:48;;;;;;;5.42;3.50;;;;;;;37.24;11.77;100201.25;1684292;84;20982;-55
2022/05/12 09:36:23;;;;;;;10.00;4.50;;;;;;;36.80;12.06;100196.80;1672958;84;21581;-55
2022/05/12 09:38:54;;;;;;;5.40;3.77;;;;;;;36.50;12.10;100200.14;1672678;84;21023;-55
2022/05/12 09:41:21;;;;;;;7.17;3.85;;;;;;;36.57;12.48;100197.36;1671887;84;21148;-56
2022/05/12 09:43:53;;;;;;;6.90;4.95;;;;;;;36.60;12.73;100191.21;1673898;84;21199;-55
2022/05/12 09:46:29;;;;;;;8.28;4.45;;;;;;;36.50;12.62;100187.92;1643167;85;20939;-56
2022/05/12 09:48:54;;;;;;;7.20;4.50;;;;;;;36.35;12.69;100194.20;1662185;84;21238;-62
2022/05/12 09:51:32;;;;;;;9.60;4.20;;;;;;;36.54;13.25;100194.20;1672921;84;21078;-55
2022/05/12 09:54:25;;;;;;;8.93;4.72;;;;;;;36.90;12.39;100184.53;1662927;84;21066;-64
2022/05/12 09:57:14;;;;;;;7.28;4.83;;;;;;;37.12;12.28;100190.55;1662214;84;21763;-57
2022/05/12 09:59:44;;;;;;;6.20;4.60;;;;;;;36.96;12.29;100190.69;1672907;84;21011;-57
2022/05/12 10:08:25;;;;;;;5.55;4.35;;;;;;;37.23;12.16;100179.27;1660211;84;21506;-56
2022/05/12 10:11:01;;;;;;;7.22;4.05;;;;;;;36.70;12.41;100182.45;1654712;84;21271;-56
2022/05/12 10:13:44;;;;;;;5.15;3.77;;;;;;;36.44;12.50;100179.04;1665810;85;21544;-56
2022/05/12 10:16:11;;;;;;;5.53;4.28;;;;;;;36.39;12.53;100176.63;1665302;85;21632;-54
2022/05/12 10:18:45;;;;;;;7.00;3.98;;;;;;;36.38;12.89;100171.77;1665238;84;21036;-61
2022/05/12 10:21:25;;;;;;;7.08;3.80;;;;;;;36.61;13.13;100172.41;1665104;84;21112;-54
2022/05/12 10:24:11;;;;;;;;;;;;;;;37.14;12.46;100161.67;1667670;85;21422;-53
2022/05/12 10:26:41;;;;;;;8.85;4.97;;;;;;;37.41;12.49;100174.69;1664581;85;20149;-53
2022/05/12 10:29:22;;;;;;;5.75;4.37;;;;;;;37.62;12.12;100175.57;1664058;84;21511;-60
2022/05/12 10:32:03;;;;;;;6.47;4.65;;;;;;;37.75;12.16;100167.41;1664062;85;21554;-54
2022/05/12 10:35:23;;;;;;;6.72;4.22;;;;;;;37.79;12.10;100165.52;1702534;83;21647;-54
2022/05/12 10:38:03;;;;;;;7.37;4.72;;;;;;;37.66;12.18;100178.57;1690792;83;21063;-62
2022/05/12 10:40:42;;;;;;;5.50;4.22;;;;;;;37.38;11.92;100164.53;1679023;83;21061;-62
2022/05/12 10:43:46;;;;;;;4.78;3.47;;;;;;;36.95;12.29;100163.31;1702241;83;21806;-56
2022/05/12 10:46:30;;;;;;;8.40;4.28;;;;;;;36.71;12.50;100162.28;1689151;83;21550;-56
2022/05/12 10:49:05;;;;;;;7.35;3.80;;;;;;;36.50;12.70;100163.48;1690902;83;21044;-62
2022/05/12 10:52:04;;;;;;;11.00;4.37;;;;;;;36.49;12.69;100161.14;1701527;83;21312;-59
2022/05/12 10:55:02;;;;;;;7.20;3.90;;;;;;;36.51;12.70;100150.12;1701629;83;20913;-57
2022/05/12 10:57:38;;;;;;;6.20;3.30;;;;;;;36.64;12.94;100148.61;1701129;83;21317;-54
2022/05/12 11:00:30;;;;;;;6.70;3.30;;;;;;;36.91;12.69;100142.07;1700817;83;21032;-62
2022/05/12 11:03:20;;;;;;;5.95;2.90;;;;;;;37.19;12.73;100137.66;1684476;83;21122;-54
2022/05/12 11:05:51;;;;;;;;;;;;;;;37.52;12.15;100129.42;1704997;83;21855;-55
2022/05/12 11:08:37;;;;;;;4.17;2.85;;;;;;;37.72;12.12;100125.97;1701631;83;20154;-56
2022/05/12 11:11:15;;;;;;;3.52;2.50;;;;;;;37.81;12.07;100127.04;1701650;83;21495;-56
2022/05/12 11:14:08;;;;;;;4.08;2.45;;;;;;;37.73;12.06;100128.89;1701361;83;21845;-56
2022/05/12 11:16:43;;;;;;;5.15;2.60;;;;;;;37.63;12.03;100126.27;1695204;83;20991;-63
2022/05/12 11:19:20;;;;;;;4.45;2.33;;;;;;;37.56;12.03;100117.23;1701072;83;21661;-54
2022/05/12 11:22:29;;;;;;;5.92;3.20;;;;;;;37.36;12.35;100119.27;1701562;83;21396;-56
2022/05/12 11:25:19;;;;;;;5.78;2.98;;;;;;;37.33;12.44;100114.56;1700620;83;20980;-55
2022/05/12 11:31:26;;;;;;;4.03;1.77;;;;;;;37.33;12.21;100092.81;1702165;83;21473;-54
2022/05/12 11:34:04;;;;;;;4.22;1.95;;;;;;;37.00;12.53;100099.14;1691331;83;21705;-54
2022/05/12 11:36:46;;;;;;;6.15;2.12;;;;;;;36.89;12.54;100098.74;1701866;83;20999;-62
2022/05/12 11:39:41;;;;;;;4.12;2.37;;;;;;;36.90;12.52;100090.80;1700267;84;21507;-61
2022/05/12 11:42:21;;;;;;;4.78;2.50;;;;;;;37.06;12.55;100083.91;1700639;83;21537;-56
2022/05/12 11:45:08;;;;;;;5.67;3.20;;;;;;;37.29;12.39;100075.68;1701283;83;22331;-57
2022/05/12 11:47:58;;;;;;;6.70;3.45;;;;;;;37.38;12.53;100081.03;1701115;83;21705;-55
2022/05/12 11:50:33;;;;;;;5.60;2.70;;;;;;;37.23;12.48;100077.92;1700809;83;21071;-55
2022/05/12 11:53:05;;;;;;;4.17;1.92;;;;;;;37.07;12.77;100077.31;1691176;83;20932;-56
2022/05/12 11:55:54;;;;;;;2.98;2.00;;;;;;;37.01;12.36;100068.67;1700978;83;21048;-55
2022/05/12 11:58:44;;;;;;;5.17;2.10;;;;;;;36.85;12.23;100066.09;1701975;83;21503;-55
2022/05/12 12:01:24;;;;;;;3.05;1.60;;;;;;;36.41;12.42;100079.34;1702027;83;21140;-54
2022/05/12 12:03:56;;;;;;;4.70;1.60;;;;;;;35.90;12.59;100069.46;1701015;83;20973;-55
2022/05/12 12:06:46;;;;;;;4.33;1.60;;;;;;;35.53;13.01;100054.98;1700349;83;21533;-57
2022/05/12 12:09:37;;;;;;;3.40;2.17;;;;;;;35.27;13.43;100063.72;1695177;83;21012;-61